الصفحة الرئيسية
METAR-TAF:

METAR-TAF

مطار :

مطار بيرث

بيرث, أستراليا

دائرة عرض: 31-56S, خط طول: 115-57E, ارتفاع: 20 متر

مراقبة الطقس الحالي

تاريخ ووقت الإصدار 21 دقيقة قبل الساعة 05:00UTC
ريح 17 عقدة من الشرق/الشمال الشرقي
درجة الحرارة 21°درجة مئوية
الرطوبة 35%
ضغط 1023 hPa
الرؤية 10 كم أو أكثر
الغيوم لا تقل 1500 م ولا وجود لمزنة ركامية السحاب الأسود

METAR: YPPH 250500Z 07017KT CAVOK 21/05 Q1023

زمن: 13:21 (05:21 UTC)

توقعات

تاريخ ووقت الإصدار 3ساعات و 12 دقيقة قبل الساعة 02:09UTC
التوقعات صالحة من25 الساعة 03 UTC إلى 26 الساعة 06 UTC
ريح 14 عقدة من الشرق
الرؤية 10 كم أو أكثر
الغيوم لا تقل 1500 م ولا وجود لمزنة ركامية السحاب الأسود
من 26 الساعة 0200 UTC
ريح 12 عقدة من الشمال/الشمال الشرقي
الرؤية 10 كم أو أكثر
الغيوم لا تقل 1500 م ولا وجود لمزنة ركامية السحاب الأسود

TAF: YPPH 250209Z 2503/2606 08014KT CAVOK FM260200 03012KT CAVOK

أرصاد الطقس والتوقعات من أكثر من 4000 مطار (تقارير الطقس للمطار METAR والتنبؤ بالطقس بالمطارTAF).

المحطات المتاحة هي النقط الصفراء والحمراء على الخريطة.

حرك المؤشر فوق النقطة لمعرفة اسم المحطة.

ثم انقر لمعرفة أرصاد وتوقعات الطقس.

لتغيير الخارطة: اضغط على الأزرار الخضراء مع رمز الصليب الأسود للتكبير. على الزر الأخضر مع شرطة للتصغير، أو على الأسهم الخضراء للخرائط المجاورة.


METAR-TAF: